sensor_id;sensor_type;location;lat;lon;timestamp;pressure;altitude;pressure_sealevel;temperature;humidity
72118;BME280;59992;47.490;8.736;2022-07-22T00:02:07;96920.98;;;16.39;79.46
72118;BME280;59992;47.490;8.736;2022-07-22T00:04:58;96918.32;;;16.36;79.88
72118;BME280;59992;47.490;8.736;2022-07-22T00:07:49;96921.63;;;16.32;80.48
72118;BME280;59992;47.490;8.736;2022-07-22T00:10:40;96916.44;;;16.28;80.34
72118;BME280;59992;47.490;8.736;2022-07-22T00:13:30;96918.06;;;16.23;80.21
72118;BME280;59992;47.490;8.736;2022-07-22T00:16:22;96918.08;;;16.19;80.77
72118;BME280;59992;47.490;8.736;2022-07-22T00:19:12;96913.96;;;16.16;80.29
72118;BME280;59992;47.490;8.736;2022-07-22T00:22:03;96916.03;;;16.16;78.37
72118;BME280;59992;47.490;8.736;2022-07-22T00:24:53;96917.79;;;16.16;78.66
72118;BME280;59992;47.490;8.736;2022-07-22T00:27:44;96914.52;;;16.13;81.24
72118;BME280;59992;47.490;8.736;2022-07-22T00:30:35;96912.61;;;16.09;81.72
72118;BME280;59992;47.490;8.736;2022-07-22T00:33:25;96914.69;;;16.05;80.96
72118;BME280;59992;47.490;8.736;2022-07-22T00:36:16;96909.35;;;16.04;81.17
72118;BME280;59992;47.490;8.736;2022-07-22T00:39:06;96903.00;;;16.04;79.62
72118;BME280;59992;47.490;8.736;2022-07-22T00:41:57;96902.54;;;16.04;78.31
72118;BME280;59992;47.490;8.736;2022-07-22T00:44:48;96899.40;;;16.05;79.15
72118;BME280;59992;47.490;8.736;2022-07-22T00:47:39;96897.88;;;16.04;81.59
72118;BME280;59992;47.490;8.736;2022-07-22T00:50:29;96899.50;;;16.01;81.32
72118;BME280;59992;47.490;8.736;2022-07-22T00:53:19;96898.13;;;15.98;81.65
72118;BME280;59992;47.490;8.736;2022-07-22T00:56:10;96899.20;;;15.96;80.92
72118;BME280;59992;47.490;8.736;2022-07-22T00:59:05;96894.55;;;15.95;81.85
72118;BME280;59992;47.490;8.736;2022-07-22T01:01:56;96892.88;;;15.91;82.56
72118;BME280;59992;47.490;8.736;2022-07-22T01:04:46;96891.35;;;15.89;84.05
72118;BME280;59992;47.490;8.736;2022-07-22T01:07:37;96893.64;;;15.91;81.38
72118;BME280;59992;47.490;8.736;2022-07-22T01:10:28;96889.05;;;15.92;81.61
72118;BME280;59992;47.490;8.736;2022-07-22T01:13:19;96882.34;;;15.91;81.17
72118;BME280;59992;47.490;8.736;2022-07-22T01:16:10;96882.33;;;15.90;82.32
72118;BME280;59992;47.490;8.736;2022-07-22T01:19:01;96878.29;;;15.87;83.32
72118;BME280;59992;47.490;8.736;2022-07-22T01:21:52;96882.35;;;15.84;82.22
72118;BME280;59992;47.490;8.736;2022-07-22T01:24:43;96881.21;;;15.80;82.42
72118;BME280;59992;47.490;8.736;2022-07-22T01:27:33;96876.58;;;15.70;83.36
72118;BME280;59992;47.490;8.736;2022-07-22T01:30:24;96878.71;;;15.71;84.17
72118;BME280;59992;47.490;8.736;2022-07-22T01:33:14;96880.92;;;15.71;81.78
72118;BME280;59992;47.490;8.736;2022-07-22T01:36:07;96882.98;;;15.71;82.05
72118;BME280;59992;47.490;8.736;2022-07-22T01:38:57;96885.29;;;15.70;83.25
72118;BME280;59992;47.490;8.736;2022-07-22T01:41:48;96881.77;;;15.66;84.35
72118;BME280;59992;47.490;8.736;2022-07-22T01:44:39;96884.30;;;15.62;84.93
72118;BME280;59992;47.490;8.736;2022-07-22T01:47:30;96885.69;;;15.57;85.70
72118;BME280;59992;47.490;8.736;2022-07-22T01:50:21;96882.41;;;15.54;85.61
72118;BME280;59992;47.490;8.736;2022-07-22T01:53:11;96881.73;;;15.51;85.70
72118;BME280;59992;47.490;8.736;2022-07-22T01:56:02;96880.43;;;15.49;85.87
72118;BME280;59992;47.490;8.736;2022-07-22T01:58:53;96882.95;;;15.49;84.55
72118;BME280;59992;47.490;8.736;2022-07-22T02:01:44;96878.05;;;15.46;84.03
72118;BME280;59992;47.490;8.736;2022-07-22T02:04:34;96886.92;;;15.50;84.60
72118;BME280;59992;47.490;8.736;2022-07-22T02:07:24;96881.04;;;15.48;86.37
72118;BME280;59992;47.490;8.736;2022-07-22T02:10:15;96875.77;;;15.44;86.72
72118;BME280;59992;47.490;8.736;2022-07-22T02:13:06;96879.05;;;15.45;87.20
72118;BME280;59992;47.490;8.736;2022-07-22T02:15:56;96877.91;;;15.42;85.67
72118;BME280;59992;47.490;8.736;2022-07-22T02:18:47;96873.99;;;15.38;86.82
72118;BME280;59992;47.490;8.736;2022-07-22T02:21:37;96875.38;;;15.37;85.82
72118;BME280;59992;47.490;8.736;2022-07-22T02:24:28;96873.54;;;15.34;86.40
72118;BME280;59992;47.490;8.736;2022-07-22T02:27:19;96876.45;;;15.32;85.32
72118;BME280;59992;47.490;8.736;2022-07-22T02:30:11;96874.91;;;15.28;87.47
72118;BME280;59992;47.490;8.736;2022-07-22T02:33:02;96874.39;;;15.27;87.36
72118;BME280;59992;47.490;8.736;2022-07-22T02:35:53;96872.40;;;15.28;87.20
72118;BME280;59992;47.490;8.736;2022-07-22T02:38:43;96868.98;;;15.28;85.48
72118;BME280;59992;47.490;8.736;2022-07-22T02:41:34;96869.95;;;15.27;86.05
72118;BME280;59992;47.490;8.736;2022-07-22T02:44:24;96870.20;;;15.26;86.59
72118;BME280;59992;47.490;8.736;2022-07-22T02:47:15;96872.24;;;15.22;87.80
72118;BME280;59992;47.490;8.736;2022-07-22T02:50:07;96873.09;;;15.18;87.61
72118;BME280;59992;47.490;8.736;2022-07-22T02:52:57;96877.06;;;15.15;87.61
72118;BME280;59992;47.490;8.736;2022-07-22T02:55:48;96871.33;;;15.08;87.37
72118;BME280;59992;47.490;8.736;2022-07-22T02:58:38;96882.39;;;15.12;87.66
72118;BME280;59992;47.490;8.736;2022-07-22T03:01:29;96873.09;;;15.07;86.53
72118;BME280;59992;47.490;8.736;2022-07-22T03:04:20;96878.66;;;15.12;86.92
72118;BME280;59992;47.490;8.736;2022-07-22T03:07:11;96876.06;;;15.11;86.59
72118;BME280;59992;47.490;8.736;2022-07-22T03:10:02;96875.45;;;15.10;86.28
72118;BME280;59992;47.490;8.736;2022-07-22T03:12:53;96876.67;;;15.10;86.76
72118;BME280;59992;47.490;8.736;2022-07-22T03:15:43;96875.69;;;15.09;86.72
72118;BME280;59992;47.490;8.736;2022-07-22T03:18:35;96874.16;;;15.07;87.28
72118;BME280;59992;47.490;8.736;2022-07-22T03:21:26;96875.08;;;15.06;87.86
72118;BME280;59992;47.490;8.736;2022-07-22T03:24:16;96872.55;;;15.04;87.68
72118;BME280;59992;47.490;8.736;2022-07-22T03:27:07;96869.44;;;14.99;87.90
72118;BME280;59992;47.490;8.736;2022-07-22T03:29:57;96879.12;;;15.02;87.51
72118;BME280;59992;47.490;8.736;2022-07-22T03:32:48;96881.56;;;14.99;86.97
72118;BME280;59992;47.490;8.736;2022-07-22T03:35:38;96879.41;;;14.95;87.26
72118;BME280;59992;47.490;8.736;2022-07-22T03:38:31;96874.75;;;14.90;87.13
72118;BME280;59992;47.490;8.736;2022-07-22T03:41:22;96877.44;;;14.93;87.72
72118;BME280;59992;47.490;8.736;2022-07-22T03:44:13;96880.10;;;14.93;87.29
72118;BME280;59992;47.490;8.736;2022-07-22T03:47:03;96882.15;;;14.91;87.98
72118;BME280;59992;47.490;8.736;2022-07-22T03:49:54;96882.30;;;14.90;87.11
72118;BME280;59992;47.490;8.736;2022-07-22T03:52:46;96881.70;;;14.85;87.85
72118;BME280;59992;47.490;8.736;2022-07-22T03:55:36;96879.08;;;14.81;88.30
72118;BME280;59992;47.490;8.736;2022-07-22T03:58:27;96875.20;;;14.83;87.19
72118;BME280;59992;47.490;8.736;2022-07-22T04:01:17;96872.15;;;14.81;87.74
72118;BME280;59992;47.490;8.736;2022-07-22T04:04:08;96870.77;;;14.82;87.94
72118;BME280;59992;47.490;8.736;2022-07-22T04:06:59;96865.59;;;14.81;87.93
72118;BME280;59992;47.490;8.736;2022-07-22T04:09:50;96857.82;;;14.80;87.19
72118;BME280;59992;47.490;8.736;2022-07-22T04:12:41;96856.59;;;14.81;87.10
72118;BME280;59992;47.490;8.736;2022-07-22T04:15:32;96859.20;;;14.85;86.91
72118;BME280;59992;47.490;8.736;2022-07-22T04:18:23;96858.59;;;14.89;87.30
72118;BME280;59992;47.490;8.736;2022-07-22T04:21:13;96852.19;;;14.93;87.85
72118;BME280;59992;47.490;8.736;2022-07-22T04:24:04;96852.20;;;15.10;87.28
72118;BME280;59992;47.490;8.736;2022-07-22T04:26:55;96857.91;;;15.42;85.62
72118;BME280;59992;47.490;8.736;2022-07-22T04:29:45;96855.33;;;15.76;84.70
72118;BME280;59992;47.490;8.736;2022-07-22T04:32:36;96861.77;;;16.17;83.91
72118;BME280;59992;47.490;8.736;2022-07-22T04:35:26;96861.11;;;16.61;83.24
72118;BME280;59992;47.490;8.736;2022-07-22T04:38:18;96859.70;;;17.11;80.44
72118;BME280;59992;47.490;8.736;2022-07-22T04:41:09;96865.04;;;17.74;76.79
72118;BME280;59992;47.490;8.736;2022-07-22T04:43:59;96863.95;;;18.18;75.58
72118;BME280;59992;47.490;8.736;2022-07-22T04:46:49;96863.20;;;18.47;74.94
72118;BME280;59992;47.490;8.736;2022-07-22T04:49:40;96860.52;;;18.92;73.85
72118;BME280;59992;47.490;8.736;2022-07-22T04:52:30;96860.25;;;19.56;73.58
72118;BME280;59992;47.490;8.736;2022-07-22T04:55:21;96855.56;;;20.23;70.82
72118;BME280;59992;47.490;8.736;2022-07-22T04:58:11;96855.65;;;20.90;70.05
72118;BME280;59992;47.490;8.736;2022-07-22T05:01:02;96848.45;;;21.49;66.61
72118;BME280;59992;47.490;8.736;2022-07-22T05:03:53;96856.83;;;22.07;64.93
72118;BME280;59992;47.490;8.736;2022-07-22T05:06:43;96854.99;;;22.58;64.54
72118;BME280;59992;47.490;8.736;2022-07-22T05:09:33;96856.94;;;23.10;61.91
72118;BME280;59992;47.490;8.736;2022-07-22T05:12:24;96858.77;;;23.61;60.87
72118;BME280;59992;47.490;8.736;2022-07-22T05:15:15;96858.41;;;24.05;56.79
72118;BME280;59992;47.490;8.736;2022-07-22T05:18:05;96861.54;;;24.45;54.42
72118;BME280;59992;47.490;8.736;2022-07-22T05:20:56;96865.00;;;24.83;53.25
72118;BME280;59992;47.490;8.736;2022-07-22T05:23:46;96862.92;;;25.24;53.20
72118;BME280;59992;47.490;8.736;2022-07-22T05:26:37;96861.61;;;25.64;51.34
72118;BME280;59992;47.490;8.736;2022-07-22T05:29:27;96865.73;;;26.08;51.54
72118;BME280;59992;47.490;8.736;2022-07-22T05:32:18;96863.75;;;26.50;48.98
72118;BME280;59992;47.490;8.736;2022-07-22T05:35:09;96859.61;;;26.51;47.25
72118;BME280;59992;47.490;8.736;2022-07-22T05:37:59;96853.27;;;26.58;46.43
72118;BME280;59992;47.490;8.736;2022-07-22T05:40:50;96852.70;;;26.80;46.49
72118;BME280;59992;47.490;8.736;2022-07-22T05:43:41;96847.25;;;27.00;44.36
72118;BME280;59992;47.490;8.736;2022-07-22T05:46:31;96846.96;;;27.25;44.38
72118;BME280;59992;47.490;8.736;2022-07-22T05:49:22;96846.16;;;27.38;43.93
72118;BME280;59992;47.490;8.736;2022-07-22T05:52:15;96849.11;;;27.68;43.97
72118;BME280;59992;47.490;8.736;2022-07-22T05:55:07;96851.68;;;27.93;43.50
72118;BME280;59992;47.490;8.736;2022-07-22T05:57:57;96850.16;;;28.18;42.35
72118;BME280;59992;47.490;8.736;2022-07-22T06:00:48;96855.98;;;28.44;42.17
72118;BME280;59992;47.490;8.736;2022-07-22T06:03:38;96853.92;;;28.82;41.91
72118;BME280;59992;47.490;8.736;2022-07-22T06:06:29;96853.52;;;29.24;41.65
72118;BME280;59992;47.490;8.736;2022-07-22T06:09:20;96851.81;;;29.61;40.65
72118;BME280;59992;47.490;8.736;2022-07-22T06:12:11;96856.70;;;29.94;39.73
72118;BME280;59992;47.490;8.736;2022-07-22T06:15:01;96858.95;;;30.54;40.73
72118;BME280;59992;47.490;8.736;2022-07-22T06:17:52;96855.14;;;31.08;37.48
72118;BME280;59992;47.490;8.736;2022-07-22T06:20:42;96855.19;;;31.25;37.26
72118;BME280;59992;47.490;8.736;2022-07-22T06:23:33;96854.08;;;31.14;37.58
72118;BME280;59992;47.490;8.736;2022-07-22T06:26:23;96849.91;;;30.85;38.13
72118;BME280;59992;47.490;8.736;2022-07-22T06:29:14;96851.30;;;31.00;37.96
72118;BME280;59992;47.490;8.736;2022-07-22T06:32:06;96851.21;;;31.08;37.93
72118;BME280;59992;47.490;8.736;2022-07-22T06:34:56;96853.27;;;31.45;40.50
72118;BME280;59992;47.490;8.736;2022-07-22T06:37:47;96852.73;;;32.15;38.67
72118;BME280;59992;47.490;8.736;2022-07-22T06:40:37;96854.11;;;32.49;35.93
72118;BME280;59992;47.490;8.736;2022-07-22T06:43:29;96855.90;;;32.86;36.08
72118;BME280;59992;47.490;8.736;2022-07-22T06:46:19;96856.29;;;33.13;34.90
72118;BME280;59992;47.490;8.736;2022-07-22T06:49:10;96856.55;;;33.28;35.01
72118;BME280;59992;47.490;8.736;2022-07-22T06:52:00;96854.66;;;33.50;34.91
72118;BME280;59992;47.490;8.736;2022-07-22T06:54:51;96854.54;;;33.54;34.12
72118;BME280;59992;47.490;8.736;2022-07-22T06:57:42;96856.58;;;33.62;34.34
72118;BME280;59992;47.490;8.736;2022-07-22T07:00:33;96853.25;;;33.78;34.86
72118;BME280;59992;47.490;8.736;2022-07-22T07:03:23;96850.10;;;33.88;33.51
72118;BME280;59992;47.490;8.736;2022-07-22T07:06:14;96847.86;;;33.74;32.65
72118;BME280;59992;47.490;8.736;2022-07-22T07:09:05;96844.27;;;33.47;34.23
72118;BME280;59992;47.490;8.736;2022-07-22T07:11:56;96843.10;;;33.07;34.85
72118;BME280;59992;47.490;8.736;2022-07-22T07:14:47;96843.36;;;33.25;34.46
72118;BME280;59992;47.490;8.736;2022-07-22T07:17:38;96842.12;;;33.47;33.78
72118;BME280;59992;47.490;8.736;2022-07-22T07:20:28;96838.83;;;33.47;33.68
72118;BME280;59992;47.490;8.736;2022-07-22T07:23:18;96835.00;;;33.56;34.44
72118;BME280;59992;47.490;8.736;2022-07-22T07:26:09;96832.70;;;33.67;33.76
72118;BME280;59992;47.490;8.736;2022-07-22T07:29:00;96827.98;;;33.41;33.53
72118;BME280;59992;47.490;8.736;2022-07-22T07:31:50;96829.36;;;33.14;33.88
72118;BME280;59992;47.490;8.736;2022-07-22T07:34:41;96827.85;;;33.19;34.76
72118;BME280;59992;47.490;8.736;2022-07-22T07:37:31;96819.29;;;33.02;35.04
72118;BME280;59992;47.490;8.736;2022-07-22T07:40:22;96821.94;;;33.23;34.74
72118;BME280;59992;47.490;8.736;2022-07-22T07:43:13;96817.02;;;33.28;34.10
72118;BME280;59992;47.490;8.736;2022-07-22T07:46:04;96814.42;;;33.49;34.39
72118;BME280;59992;47.490;8.736;2022-07-22T07:48:54;96810.08;;;33.60;34.14
72118;BME280;59992;47.490;8.736;2022-07-22T07:51:45;96805.73;;;33.60;33.96
72118;BME280;59992;47.490;8.736;2022-07-22T07:54:35;96802.84;;;33.41;33.70
72118;BME280;59992;47.490;8.736;2022-07-22T07:57:27;96801.96;;;33.16;35.60
72118;BME280;59992;47.490;8.736;2022-07-22T08:00:22;96803.59;;;33.23;34.51
72118;BME280;59992;47.490;8.736;2022-07-22T08:03:13;96800.53;;;33.10;34.48
72118;BME280;59992;47.490;8.736;2022-07-22T08:06:05;96797.80;;;32.66;35.47
72118;BME280;59992;47.490;8.736;2022-07-22T08:08:56;96794.09;;;32.87;35.15
72118;BME280;59992;47.490;8.736;2022-07-22T08:11:46;96796.57;;;33.00;35.71
72118;BME280;59992;47.490;8.736;2022-07-22T08:14:37;96799.01;;;33.00;34.90
72118;BME280;59992;47.490;8.736;2022-07-22T08:17:27;96793.95;;;33.04;34.87
72118;BME280;59992;47.490;8.736;2022-07-22T08:20:18;96788.87;;;32.97;35.01
72118;BME280;59992;47.490;8.736;2022-07-22T08:23:09;96782.95;;;32.86;35.30
72118;BME280;59992;47.490;8.736;2022-07-22T08:26:00;96778.98;;;32.98;34.89
72118;BME280;59992;47.490;8.736;2022-07-22T08:28:50;96776.39;;;32.93;34.57
72118;BME280;59992;47.490;8.736;2022-07-22T08:31:41;96775.77;;;32.76;34.63
72118;BME280;59992;47.490;8.736;2022-07-22T08:34:31;96768.84;;;32.71;34.52
72118;BME280;59992;47.490;8.736;2022-07-22T08:37:22;96764.51;;;32.42;35.16
72118;BME280;59992;47.490;8.736;2022-07-22T08:40:13;96764.69;;;32.39;36.03
72118;BME280;59992;47.490;8.736;2022-07-22T08:43:04;96764.05;;;32.42;35.96
72118;BME280;59992;47.490;8.736;2022-07-22T08:45:56;96760.08;;;32.42;35.98
72118;BME280;59992;47.490;8.736;2022-07-22T08:48:47;96758.91;;;32.40;36.10
72118;BME280;59992;47.490;8.736;2022-07-22T08:51:38;96754.73;;;32.44;36.21
72118;BME280;59992;47.490;8.736;2022-07-22T08:54:28;96749.49;;;31.96;36.13
72118;BME280;59992;47.490;8.736;2022-07-22T08:57:19;96737.76;;;32.05;36.98
72118;BME280;59992;47.490;8.736;2022-07-22T09:00:14;96740.89;;;32.10;36.23
72118;BME280;59992;47.490;8.736;2022-07-22T09:03:21;96740.85;;;31.78;36.12
72118;BME280;59992;47.490;8.736;2022-07-22T09:06:11;96739.80;;;31.85;36.60
72118;BME280;59992;47.490;8.736;2022-07-22T09:09:05;96737.79;;;32.01;37.41
72118;BME280;59992;47.490;8.736;2022-07-22T09:12:06;96735.11;;;32.27;36.97
72118;BME280;59992;47.490;8.736;2022-07-22T09:14:59;96730.92;;;32.19;36.61
72118;BME280;59992;47.490;8.736;2022-07-22T09:17:50;96727.42;;;32.43;35.81
72118;BME280;59992;47.490;8.736;2022-07-22T09:20:40;96726.48;;;32.48;35.72
72118;BME280;59992;47.490;8.736;2022-07-22T09:23:40;96720.42;;;32.62;36.23
72118;BME280;59992;47.490;8.736;2022-07-22T09:26:33;96726.16;;;32.65;36.57
72118;BME280;59992;47.490;8.736;2022-07-22T09:29:24;96723.52;;;32.82;35.47
72118;BME280;59992;47.490;8.736;2022-07-22T09:32:15;96719.06;;;32.65;36.03
72118;BME280;59992;47.490;8.736;2022-07-22T09:35:07;96720.48;;;32.54;35.37
72118;BME280;59992;47.490;8.736;2022-07-22T09:38:00;96719.55;;;32.45;35.45
72118;BME280;59992;47.490;8.736;2022-07-22T09:40:50;96723.44;;;32.43;35.78
72118;BME280;59992;47.490;8.736;2022-07-22T09:43:42;96719.84;;;32.32;35.81
72118;BME280;59992;47.490;8.736;2022-07-22T09:46:39;96716.89;;;32.29;35.61
72118;BME280;59992;47.490;8.736;2022-07-22T09:49:35;96715.55;;;32.24;35.68
72118;BME280;59992;47.490;8.736;2022-07-22T09:52:27;96710.42;;;32.20;36.22
72118;BME280;59992;47.490;8.736;2022-07-22T09:55:19;96713.96;;;32.08;35.95
72118;BME280;59992;47.490;8.736;2022-07-22T09:58:10;96711.29;;;31.75;36.49
72118;BME280;59992;47.490;8.736;2022-07-22T10:01:04;96704.80;;;31.50;37.00
72118;BME280;59992;47.490;8.736;2022-07-22T10:03:57;96709.70;;;31.31;37.34
72118;BME280;59992;47.490;8.736;2022-07-22T10:06:48;96700.66;;;30.98;38.26
72118;BME280;59992;47.490;8.736;2022-07-22T10:09:41;96686.12;;;30.76;39.05
72118;BME280;59992;47.490;8.736;2022-07-22T10:12:39;96696.17;;;30.67;37.41
72118;BME280;59992;47.490;8.736;2022-07-22T10:15:31;96693.36;;;30.54;37.35
72118;BME280;59992;47.490;8.736;2022-07-22T10:18:22;96692.84;;;30.44;38.03
72118;BME280;59992;47.490;8.736;2022-07-22T10:21:14;96685.29;;;30.24;39.35
72118;BME280;59992;47.490;8.736;2022-07-22T10:24:11;96688.33;;;30.19;39.29
72118;BME280;59992;47.490;8.736;2022-07-22T10:27:02;96691.68;;;30.16;38.85
72118;BME280;59992;47.490;8.736;2022-07-22T10:29:55;96690.54;;;30.08;39.19
72118;BME280;59992;47.490;8.736;2022-07-22T10:33:05;96688.66;;;30.06;39.30
72118;BME280;59992;47.490;8.736;2022-07-22T10:35:58;96692.17;;;30.07;39.33
72118;BME280;59992;47.490;8.736;2022-07-22T10:39:05;96687.66;;;30.04;38.26
72118;BME280;59992;47.490;8.736;2022-07-22T10:41:56;96681.58;;;30.02;38.82
72118;BME280;59992;47.490;8.736;2022-07-22T10:44:50;96679.73;;;30.02;40.59
72118;BME280;59992;47.490;8.736;2022-07-22T10:47:57;96681.25;;;30.04;38.80
72118;BME280;59992;47.490;8.736;2022-07-22T10:50:54;96666.30;;;29.92;39.02
72118;BME280;59992;47.490;8.736;2022-07-22T10:53:47;96671.72;;;29.87;39.57
72118;BME280;59992;47.490;8.736;2022-07-22T10:56:43;96666.94;;;29.75;40.05
72118;BME280;59992;47.490;8.736;2022-07-22T10:59:35;96663.30;;;29.69;39.63
72118;BME280;59992;47.490;8.736;2022-07-22T11:02:27;96655.64;;;29.64;39.81
72118;BME280;59992;47.490;8.736;2022-07-22T11:05:27;96654.64;;;29.59;39.70
72118;BME280;59992;47.490;8.736;2022-07-22T11:08:20;96648.59;;;29.53;39.81
72118;BME280;59992;47.490;8.736;2022-07-22T11:11:11;96649.65;;;29.45;39.33
72118;BME280;59992;47.490;8.736;2022-07-22T11:14:02;96649.23;;;29.32;39.55
72118;BME280;59992;47.490;8.736;2022-07-22T11:16:54;96646.90;;;29.28;38.55
72118;BME280;59992;47.490;8.736;2022-07-22T11:19:45;96638.02;;;29.28;40.13
72118;BME280;59992;47.490;8.736;2022-07-22T11:22:36;96639.48;;;29.26;38.45
72118;BME280;59992;47.490;8.736;2022-07-22T11:25:27;96634.94;;;29.23;38.87
72118;BME280;59992;47.490;8.736;2022-07-22T11:28:18;96623.77;;;29.25;39.18
72118;BME280;59992;47.490;8.736;2022-07-22T11:31:14;96620.98;;;29.27;38.02
72118;BME280;59992;47.490;8.736;2022-07-22T11:34:11;96613.73;;;29.27;37.85
72118;BME280;59992;47.490;8.736;2022-07-22T11:37:01;96614.44;;;29.24;37.81
72118;BME280;59992;47.490;8.736;2022-07-22T11:39:58;96614.45;;;29.24;37.80
72118;BME280;59992;47.490;8.736;2022-07-22T11:43:02;96606.90;;;29.30;37.66
72118;BME280;59992;47.490;8.736;2022-07-22T11:45:58;96601.40;;;29.32;37.26
72118;BME280;59992;47.490;8.736;2022-07-22T11:48:49;96600.39;;;29.39;37.02
72118;BME280;59992;47.490;8.736;2022-07-22T11:51:39;96600.14;;;29.40;38.40
72118;BME280;59992;47.490;8.736;2022-07-22T11:54:30;96599.27;;;29.44;37.67
72118;BME280;59992;47.490;8.736;2022-07-22T11:57:20;96598.38;;;29.50;37.09
72118;BME280;59992;47.490;8.736;2022-07-22T12:00:13;96593.98;;;29.52;37.37
72118;BME280;59992;47.490;8.736;2022-07-22T12:03:05;96584.06;;;29.54;37.15
72118;BME280;59992;47.490;8.736;2022-07-22T12:05:56;96587.33;;;29.65;36.40
72118;BME280;59992;47.490;8.736;2022-07-22T12:08:49;96583.40;;;29.69;35.11
72118;BME280;59992;47.490;8.736;2022-07-22T12:11:44;96579.38;;;29.70;35.35
72118;BME280;59992;47.490;8.736;2022-07-22T12:14:36;96579.75;;;29.69;35.22
72118;BME280;59992;47.490;8.736;2022-07-22T12:17:29;96582.05;;;29.69;35.08
72118;BME280;59992;47.490;8.736;2022-07-22T12:20:25;96583.23;;;29.68;34.68
72118;BME280;59992;47.490;8.736;2022-07-22T12:23:16;96579.83;;;29.70;34.03
72118;BME280;59992;47.490;8.736;2022-07-22T12:26:08;96573.56;;;29.69;34.63
72118;BME280;59992;47.490;8.736;2022-07-22T12:29:13;96569.70;;;29.70;35.27
72118;BME280;59992;47.490;8.736;2022-07-22T12:32:06;96562.89;;;29.76;34.69
72118;BME280;59992;47.490;8.736;2022-07-22T12:34:59;96557.58;;;29.84;35.20
72118;BME280;59992;47.490;8.736;2022-07-22T12:37:50;96552.29;;;29.90;33.96
72118;BME280;59992;47.490;8.736;2022-07-22T12:40:41;96552.30;;;29.97;33.65
72118;BME280;59992;47.490;8.736;2022-07-22T12:43:31;96553.11;;;30.01;34.02
72118;BME280;59992;47.490;8.736;2022-07-22T12:46:23;96549.44;;;30.04;34.08
72118;BME280;59992;47.490;8.736;2022-07-22T12:49:16;96548.52;;;30.08;33.69
72118;BME280;59992;47.490;8.736;2022-07-22T12:52:09;96550.36;;;30.15;33.74
72118;BME280;59992;47.490;8.736;2022-07-22T12:55:00;96548.63;;;30.17;33.54
72118;BME280;59992;47.490;8.736;2022-07-22T12:57:51;96547.05;;;30.20;34.15
72118;BME280;59992;47.490;8.736;2022-07-22T13:00:45;96547.11;;;30.22;36.83
72118;BME280;59992;47.490;8.736;2022-07-22T13:03:37;96544.19;;;30.24;36.45
72118;BME280;59992;47.490;8.736;2022-07-22T13:06:27;96542.52;;;30.27;35.77
72118;BME280;59992;47.490;8.736;2022-07-22T13:09:18;96538.70;;;30.29;36.86
72118;BME280;59992;47.490;8.736;2022-07-22T13:12:09;96539.68;;;30.34;37.05
72118;BME280;59992;47.490;8.736;2022-07-22T13:15:00;96537.95;;;30.37;35.81
72118;BME280;59992;47.490;8.736;2022-07-22T13:17:51;96531.50;;;30.43;35.70
72118;BME280;59992;47.490;8.736;2022-07-22T13:20:43;96531.07;;;30.47;35.62
72118;BME280;59992;47.490;8.736;2022-07-22T13:23:37;96531.59;;;30.51;35.04
72118;BME280;59992;47.490;8.736;2022-07-22T13:26:28;96528.61;;;30.55;34.70
72118;BME280;59992;47.490;8.736;2022-07-22T13:29:19;96523.16;;;30.62;34.95
72118;BME280;59992;47.490;8.736;2022-07-22T13:32:10;96524.41;;;30.67;33.89
72118;BME280;59992;47.490;8.736;2022-07-22T13:35:00;96524.97;;;30.69;34.08
72118;BME280;59992;47.490;8.736;2022-07-22T13:37:52;96519.95;;;30.70;34.09
72118;BME280;59992;47.490;8.736;2022-07-22T13:40:43;96514.77;;;30.72;34.03
72118;BME280;59992;47.490;8.736;2022-07-22T13:43:39;96517.02;;;30.78;33.64
72118;BME280;59992;47.490;8.736;2022-07-22T13:46:30;96519.52;;;30.85;33.52
72118;BME280;59992;47.490;8.736;2022-07-22T13:49:21;96516.23;;;30.87;32.96
72118;BME280;59992;47.490;8.736;2022-07-22T13:52:12;96516.29;;;30.88;33.31
72118;BME280;59992;47.490;8.736;2022-07-22T13:55:03;96521.52;;;30.91;33.25
72118;BME280;59992;47.490;8.736;2022-07-22T13:57:54;96517.58;;;30.91;33.33
72118;BME280;59992;47.490;8.736;2022-07-22T14:00:47;96514.30;;;30.91;34.14
72118;BME280;59992;47.490;8.736;2022-07-22T14:03:38;96511.50;;;30.92;33.81
72118;BME280;59992;47.490;8.736;2022-07-22T14:06:29;96512.76;;;30.94;34.55
72118;BME280;59992;47.490;8.736;2022-07-22T14:09:21;96509.08;;;31.00;34.38
72118;BME280;59992;47.490;8.736;2022-07-22T14:12:12;96506.74;;;31.07;32.44
72118;BME280;59992;47.490;8.736;2022-07-22T14:15:04;96510.34;;;31.12;32.15
72118;BME280;59992;47.490;8.736;2022-07-22T14:17:57;96506.01;;;31.16;32.17
72118;BME280;59992;47.490;8.736;2022-07-22T14:20:48;96510.48;;;31.20;32.09
72118;BME280;59992;47.490;8.736;2022-07-22T14:23:38;96510.73;;;31.27;32.01
72118;BME280;59992;47.490;8.736;2022-07-22T14:26:30;96508.69;;;31.32;31.28
72118;BME280;59992;47.490;8.736;2022-07-22T14:29:23;96511.17;;;31.35;32.64
72118;BME280;59992;47.490;8.736;2022-07-22T14:32:14;96511.77;;;31.35;30.96
72118;BME280;59992;47.490;8.736;2022-07-22T14:35:05;96512.70;;;31.38;32.18
72118;BME280;59992;47.490;8.736;2022-07-22T14:37:56;96512.66;;;31.39;31.70
72118;BME280;59992;47.490;8.736;2022-07-22T14:40:48;96506.22;;;31.37;32.02
72118;BME280;59992;47.490;8.736;2022-07-22T14:43:40;96507.86;;;31.37;32.01
72118;BME280;59992;47.490;8.736;2022-07-22T14:46:44;96501.61;;;31.34;31.81
72118;BME280;59992;47.490;8.736;2022-07-22T14:49:38;96504.86;;;31.36;31.12
72118;BME280;59992;47.490;8.736;2022-07-22T14:52:28;96500.90;;;31.41;30.23
72118;BME280;59992;47.490;8.736;2022-07-22T14:55:20;96494.86;;;31.43;30.60
72118;BME280;59992;47.490;8.736;2022-07-22T14:58:11;96491.63;;;31.49;30.93
72118;BME280;59992;47.490;8.736;2022-07-22T15:01:03;96490.88;;;31.54;30.34
72118;BME280;59992;47.490;8.736;2022-07-22T15:03:54;96488.92;;;31.59;30.66
72118;BME280;59992;47.490;8.736;2022-07-22T15:06:56;96485.98;;;31.61;30.13
72118;BME280;59992;47.490;8.736;2022-07-22T15:09:48;96483.68;;;31.63;30.36